Time;durP1;ratioP1;P1;durP2;ratioP2;P2;SDS_P1;SDS_P2;PMS_P1;PMS_P2;Temp;Humidity;BMP_temperature;BMP_pressure;BME280_temperature;BME280_humidity;BME280_pressure;Samples;Min_cycle;Max_cycle;Signal;HPM_P1;HPM_P2
2022/08/30 00:02:09;;;;;;;2.40;1.80;;;;;;;;;;4961112;28;20117;-58
2022/08/30 00:04:36;;;;;;;2.20;1.25;;;;;;;;;;4964472;28;20499;-59
2022/08/30 00:07:04;;;;;;;3.88;1.65;;;;;;;;;;4958709;28;20455;-65
2022/08/30 00:09:38;;;;;;;2.35;1.63;;;;;;;;;;4959294;28;20466;-65
2022/08/30 00:12:05;;;;;;;2.83;1.65;;;;;;;;;;4958446;28;20090;-65
2022/08/30 00:14:32;;;;;;;4.97;2.03;;;;;;;;;;4961958;28;20114;-64
2022/08/30 00:17:06;;;;;;;5.28;1.77;;;;;;;;;;4959307;28;20090;-65
2022/08/30 00:19:39;;;;;;;5.68;1.75;;;;;;;;;;4962436;28;20501;-65
2022/08/30 00:22:14;;;;;;;6.20;1.90;;;;;;;;;;4962186;28;20114;-66
2022/08/30 00:24:41;;;;;;;2.25;1.63;;;;;;;;;;4962870;28;20055;-63
2022/08/30 00:27:08;;;;;;;3.72;1.92;;;;;;;;;;4959709;28;20129;-66
2022/08/30 00:29:42;;;;;;;3.30;1.83;;;;;;;;;;4958288;28;20139;-65
2022/08/30 00:32:11;;;;;;;5.60;2.00;;;;;;;;;;4959057;28;20066;-65
2022/08/30 00:34:40;;;;;;;7.25;2.03;;;;;;;;;;4959362;28;20552;-65
2022/08/30 00:37:14;;;;;;;2.28;1.80;;;;;;;;;;4961194;28;20151;-66
2022/08/30 00:39:41;;;;;;;;;;;;;;;;;;4962902;28;20097;-65
2022/08/30 00:42:09;;;;;;;6.28;1.92;;;;;;;;;;4961631;28;19933;-66
2022/08/30 00:44:43;;;;;;;4.63;1.88;;;;;;;;;;4962714;28;20083;-64
2022/08/30 00:47:10;;;;;;;3.00;1.60;;;;;;;;;;4960202;28;20171;-64
2022/08/30 00:49:39;;;;;;;2.10;1.60;;;;;;;;;;4960654;28;20565;-64
2022/08/30 00:52:13;;;;;;;3.55;1.88;;;;;;;;;;4961283;28;20083;-64
2022/08/30 00:54:43;;;;;;;4.57;1.70;;;;;;;;;;4960158;28;20133;-64
2022/08/30 00:57:11;;;;;;;2.55;1.60;;;;;;;;;;4958431;28;20637;-63
2022/08/30 00:59:47;;;;;;;1.88;1.30;;;;;;;;;;4962961;28;20059;-52
2022/08/30 01:02:15;;;;;;;2.33;1.67;;;;;;;;;;4958132;28;20142;-64
2022/08/30 01:04:43;;;;;;;2.13;1.75;;;;;;;;;;4963186;28;20066;-65
2022/08/30 01:07:17;;;;;;;3.35;2.00;;;;;;;;;;4963525;28;20086;-65
2022/08/30 01:09:44;;;;;;;;;;;;;;;;;;4966139;28;20097;-65
2022/08/30 01:12:11;;;;;;;2.50;1.75;;;;;;;;;;4967474;28;19922;-64
2022/08/30 01:14:46;;;;;;;3.25;1.90;;;;;;;;;;4965507;28;20055;-65
2022/08/30 01:17:14;;;;;;;2.53;1.98;;;;;;;;;;4963843;28;20118;-64
2022/08/30 01:19:58;;;;;;;2.42;1.88;;;;;;;;;;4963805;28;20050;-56
2022/08/30 01:22:43;;;;;;;3.03;1.80;;;;;;;;;;4968111;28;20065;-48
2022/08/30 01:25:14;;;;;;;3.42;1.63;;;;;;;;;;4963476;28;20058;-50
2022/08/30 01:27:56;;;;;;;3.47;1.60;;;;;;;;;;4961529;28;20121;-51
2022/08/30 01:30:23;;;;;;;3.53;1.67;;;;;;;;;;4962192;28;20079;-46
2022/08/30 01:32:59;;;;;;;2.92;2.08;;;;;;;;;;4960095;28;20090;-46
2022/08/30 01:35:27;;;;;;;3.05;2.05;;;;;;;;;;4961431;28;22345;-47
2022/08/30 01:37:55;;;;;;;3.45;1.77;;;;;;;;;;4963036;28;20055;-63
2022/08/30 01:40:29;;;;;;;2.65;2.05;;;;;;;;;;4962703;28;20110;-63
2022/08/30 01:42:56;;;;;;;2.58;1.60;;;;;;;;;;4961545;28;20061;-63
2022/08/30 01:45:23;;;;;;;6.20;1.75;;;;;;;;;;4959689;28;20055;-63
2022/08/30 01:47:57;;;;;;;7.20;2.17;;;;;;;;;;4961582;28;20086;-65
2022/08/30 01:50:28;;;;;;;2.47;1.80;;;;;;;;;;4963131;28;20047;-65
2022/08/30 01:52:55;;;;;;;5.00;2.25;;;;;;;;;;4963692;28;20101;-65
2022/08/30 01:55:30;;;;;;;4.82;2.10;;;;;;;;;;4963491;28;20137;-48
2022/08/30 01:57:57;;;;;;;5.53;2.10;;;;;;;;;;4963104;28;20078;-50
2022/08/30 02:00:24;;;;;;;5.10;2.03;;;;;;;;;;4962441;28;20709;-47
2022/08/30 02:02:58;;;;;;;4.07;2.13;;;;;;;;;;4961148;28;20577;-49
2022/08/30 02:05:25;;;;;;;4.85;2.25;;;;;;;;;;4962993;28;20094;-51
2022/08/30 02:07:52;;;;;;;3.78;2.10;;;;;;;;;;4963162;28;20118;-50
2022/08/30 02:10:26;;;;;;;7.53;2.28;;;;;;;;;;4962793;28;20106;-50
2022/08/30 02:12:53;;;;;;;4.57;2.28;;;;;;;;;;4958880;28;20123;-66
2022/08/30 02:15:20;;;;;;;6.55;1.90;;;;;;;;;;4962032;28;20110;-58
2022/08/30 02:17:54;;;;;;;2.45;1.90;;;;;;;;;;4962449;28;20054;-67
2022/08/30 02:20:33;;;;;;;2.72;1.90;;;;;;;;;;4964536;28;20078;-66
2022/08/30 02:23:08;;;;;;;2.63;2.05;;;;;;;;;;4962082;28;20051;-65
2022/08/30 02:25:35;;;;;;;2.58;1.67;;;;;;;;;;4963298;28;20082;-65
2022/08/30 02:28:02;;;;;;;6.43;1.95;;;;;;;;;;4965007;28;20557;-66
2022/08/30 02:30:41;;;;;;;4.90;2.03;;;;;;;;;;4965033;28;20063;-65
2022/08/30 02:33:08;;;;;;;5.60;2.20;;;;;;;;;;4957565;28;20063;-65
2022/08/30 02:35:36;;;;;;;2.72;1.98;;;;;;;;;;4962785;28;20051;-52
2022/08/30 02:38:10;;;;;;;2.42;1.98;;;;;;;;;;4965335;28;20086;-52
2022/08/30 02:40:37;;;;;;;2.67;2.10;;;;;;;;;;4961963;28;20739;-52
2022/08/30 02:43:06;;;;;;;3.30;2.05;;;;;;;;;;4964108;28;20185;-47
2022/08/30 02:45:40;;;;;;;3.42;2.30;;;;;;;;;;4963851;28;20106;-52
2022/08/30 02:48:07;;;;;;;4.95;2.10;;;;;;;;;;4961777;28;20051;-50
2022/08/30 02:50:38;;;;;;;8.38;2.55;;;;;;;;;;4963554;28;20083;-59
2022/08/30 02:53:12;;;;;;;4.40;2.37;;;;;;;;;;4961128;28;20052;-66
2022/08/30 02:55:42;;;;;;;3.35;2.25;;;;;;;;;;4962005;28;20059;-66
2022/08/30 02:58:11;;;;;;;7.45;1.90;;;;;;;;;;4965204;28;20059;-63
2022/08/30 03:00:45;;;;;;;3.05;1.80;;;;;;;;;;4960968;28;20055;-65
2022/08/30 03:03:12;;;;;;;4.28;1.35;;;;;;;;;;4961035;28;20605;-66
2022/08/30 03:05:39;;;;;;;4.55;1.77;;;;;;;;;;4961640;28;20118;-63
2022/08/30 03:08:14;;;;;;;2.97;1.60;;;;;;;;;;4959277;28;20050;-48
2022/08/30 03:10:41;;;;;;;2.97;1.75;;;;;;;;;;4964026;28;20086;-65
2022/08/30 03:13:08;;;;;;;6.65;1.60;;;;;;;;;;4958929;28;20206;-63
2022/08/30 03:15:42;;;;;;;3.47;1.70;;;;;;;;;;4963649;28;20059;-65
2022/08/30 03:18:09;;;;;;;4.18;1.83;;;;;;;;;;4961862;28;20059;-65
2022/08/30 03:20:37;;;;;;;2.63;1.75;;;;;;;;;;4962364;28;20918;-65
2022/08/30 03:23:20;;;;;;;2.80;1.65;;;;;;;;;;4961113;28;20498;-65
2022/08/30 03:25:48;;;;;;;4.90;2.00;;;;;;;;;;4963357;28;20089;-65
2022/08/30 03:28:22;;;;;;;4.03;2.20;;;;;;;;;;4960264;28;20078;-60
2022/08/30 03:30:49;;;;;;;4.28;2.13;;;;;;;;;;4962132;28;20589;-51
2022/08/30 03:33:16;;;;;;;2.80;2.10;;;;;;;;;;4962783;28;20105;-50
2022/08/30 03:35:50;;;;;;;4.28;1.60;;;;;;;;;;4960864;28;20067;-50
2022/08/30 03:38:17;;;;;;;6.07;1.92;;;;;;;;;;4958911;28;20134;-50
2022/08/30 03:40:45;;;;;;;7.72;1.60;;;;;;;;;;4967029;28;20051;-49
2022/08/30 03:43:19;;;;;;;4.30;1.80;;;;;;;;;;4945990;28;20055;-47
2022/08/30 03:45:47;;;;;;;2.50;2.05;;;;;;;;;;4959758;28;20048;-54
2022/08/30 03:48:14;;;;;;;6.43;2.00;;;;;;;;;;4961381;28;20522;-65
2022/08/30 03:50:48;;;;;;;2.97;2.10;;;;;;;;;;4959110;28;20529;-63
2022/08/30 03:53:15;;;;;;;3.63;1.90;;;;;;;;;;4960549;28;20074;-65
2022/08/30 03:55:42;;;;;;;2.70;1.55;;;;;;;;;;4961602;28;20046;-65
2022/08/30 03:58:18;;;;;;;3.13;2.15;;;;;;;;;;4956337;28;20531;-65
2022/08/30 04:00:45;;;;;;;2.80;2.00;;;;;;;;;;4961283;28;20094;-65
2022/08/30 04:03:13;;;;;;;3.03;1.85;;;;;;;;;;4955039;28;20094;-58
2022/08/30 04:05:47;;;;;;;4.85;2.33;;;;;;;;;;4960828;28;20070;-65
2022/08/30 04:08:14;;;;;;;;;;;;;;;;;;4962269;28;20062;-66
2022/08/30 04:10:41;;;;;;;4.07;2.00;;;;;;;;;;4959390;28;19977;-65
2022/08/30 04:13:16;;;;;;;5.85;2.20;;;;;;;;;;4959707;28;20062;-64
2022/08/30 04:15:43;;;;;;;4.28;2.10;;;;;;;;;;4963714;28;20236;-65
2022/08/30 04:18:11;;;;;;;3.65;1.98;;;;;;;;;;4962490;28;20075;-65
2022/08/30 04:20:58;;;;;;;5.45;1.95;;;;;;;;;;4962710;28;20058;-65
2022/08/30 04:23:36;;;;;;;4.88;2.10;;;;;;;;;;4961154;28;20669;-65
2022/08/30 04:26:10;;;;;;;5.15;2.22;;;;;;;;;;4965022;28;20090;-50
2022/08/30 04:28:37;;;;;;;5.10;2.63;;;;;;;;;;4964184;28;20070;-50
2022/08/30 04:31:12;;;;;;;4.10;2.50;;;;;;;;;;4960019;28;20089;-49
2022/08/30 04:33:47;;;;;;;3.85;2.35;;;;;;;;;;4963749;28;20059;-49
2022/08/30 04:36:14;;;;;;;4.85;2.00;;;;;;;;;;4959268;28;20060;-49
2022/08/30 04:38:41;;;;;;;2.83;2.13;;;;;;;;;;4963675;28;20059;-51
2022/08/30 04:41:17;;;;;;;4.72;2.10;;;;;;;;;;4962214;28;20129;-65
2022/08/30 04:43:45;;;;;;;2.05;1.85;;;;;;;;;;4963884;28;20082;-61
2022/08/30 04:46:12;;;;;;;3.50;2.33;;;;;;;;;;4967305;28;20481;-59
2022/08/30 04:48:46;;;;;;;6.45;2.80;;;;;;;;;;4963779;28;20145;-60
2022/08/30 04:51:15;;;;;;;3.88;2.38;;;;;;;;;;4962418;28;20044;-60
2022/08/30 04:53:42;;;;;;;2.15;1.85;;;;;;;;;;4963523;28;20074;-58
2022/08/30 04:56:17;;;;;;;4.90;2.20;;;;;;;;;;4964201;28;20059;-58
2022/08/30 04:58:45;;;;;;;2.78;2.22;;;;;;;;;;4965776;28;20054;-65
2022/08/30 05:01:14;;;;;;;3.03;2.03;;;;;;;;;;4966132;28;20055;-65
2022/08/30 05:03:51;;;;;;;6.30;2.00;;;;;;;;;;4964038;28;20062;-64
2022/08/30 05:06:18;;;;;;;5.55;2.00;;;;;;;;;;4963510;28;20097;-65
2022/08/30 05:08:45;;;;;;;;;;;;;;;;;;4964361;28;20086;-65
2022/08/30 05:11:19;;;;;;;4.18;2.40;;;;;;;;;;4964704;28;19973;-65
2022/08/30 05:13:46;;;;;;;;;;;;;;;;;;4966106;28;20091;-65
2022/08/30 05:16:16;;;;;;;2.75;1.80;;;;;;;;;;4965870;28;20005;-65
2022/08/30 05:18:50;;;;;;;3.15;2.10;;;;;;;;;;4963586;28;20063;-63
2022/08/30 05:21:28;;;;;;;4.88;2.30;;;;;;;;;;4963961;28;20498;-47
2022/08/30 05:24:02;;;;;;;3.40;2.28;;;;;;;;;;4962529;28;20083;-49
2022/08/30 05:26:31;;;;;;;4.80;2.38;;;;;;;;;;4965072;28;20510;-52
2022/08/30 05:28:58;;;;;;;4.57;2.50;;;;;;;;;;4962519;28;20055;-49
2022/08/30 05:31:33;;;;;;;3.85;2.35;;;;;;;;;;4968119;28;20133;-51
2022/08/30 05:34:01;;;;;;;4.95;2.83;;;;;;;;;;4961079;28;20138;-53
2022/08/30 05:36:28;;;;;;;;;;;;;;;;;;4964269;28;20085;-60
2022/08/30 05:39:02;;;;;;;5.35;2.45;;;;;;;;;;4962646;28;19976;-65
2022/08/30 05:41:31;;;;;;;6.53;2.78;;;;;;;;;;4961150;28;20059;-65
2022/08/30 05:44:01;;;;;;;4.05;2.45;;;;;;;;;;4963058;28;20061;-64
2022/08/30 05:46:44;;;;;;;3.65;2.25;;;;;;;;;;4962552;28;20113;-65
2022/08/30 05:49:12;;;;;;;4.03;3.00;;;;;;;;;;4960839;28;20055;-64
2022/08/30 05:51:46;;;;;;;5.07;3.20;;;;;;;;;;4961660;28;20054;-63
2022/08/30 05:54:13;;;;;;;;;;;;;;;;;;4962791;28;20149;-62
2022/08/30 05:56:47;;;;;;;7.10;3.47;;;;;;;;;;4965182;28;19926;-57
2022/08/30 05:59:22;;;;;;;9.52;3.67;;;;;;;;;;4952159;28;20550;-58
2022/08/30 06:01:49;;;;;;;7.55;3.55;;;;;;;;;;4952295;28;20082;-58
2022/08/30 06:04:16;;;;;;;4.85;3.10;;;;;;;;;;4957595;28;20055;-57
2022/08/30 06:06:51;;;;;;;4.47;3.03;;;;;;;;;;4962190;28;20051;-58
2022/08/30 06:09:18;;;;;;;4.65;3.17;;;;;;;;;;4966652;28;20082;-58
2022/08/30 06:11:46;;;;;;;5.95;4.25;;;;;;;;;;4960165;28;20078;-63
2022/08/30 06:14:20;;;;;;;5.65;4.22;;;;;;;;;;4965620;28;20085;-57
2022/08/30 06:16:47;;;;;;;8.35;4.05;;;;;;;;;;4962855;28;20088;-57
2022/08/30 06:19:15;;;;;;;6.35;4.40;;;;;;;;;;4960093;28;20102;-58
2022/08/30 06:21:56;;;;;;;7.72;4.00;;;;;;;;;;4959771;28;20058;-58
2022/08/30 06:24:30;;;;;;;10.57;3.65;;;;;;;;;;4966260;28;20136;-58
2022/08/30 06:27:23;;;;;;;;;;;;;;;;;;4962124;28;20059;-57
2022/08/30 06:29:51;;;;;;;5.63;3.83;;;;;;;;;;4962552;28;19958;-58
2022/08/30 06:32:25;;;;;;;7.80;4.07;;;;;;;;;;4963621;28;20047;-62
2022/08/30 06:34:52;;;;;;;9.05;4.53;;;;;;;;;;4963783;28;20062;-47
2022/08/30 06:37:20;;;;;;;8.90;4.75;;;;;;;;;;4954679;28;20054;-48
2022/08/30 06:39:56;;;;;;;13.40;5.47;;;;;;;;;;4963986;28;20058;-49
2022/08/30 06:42:29;;;;;;;11.27;5.18;;;;;;;;;;4961449;28;20074;-50
2022/08/30 06:45:04;;;;;;;11.82;4.90;;;;;;;;;;4962704;28;20086;-47
2022/08/30 06:47:37;;;;;;;11.00;5.25;;;;;;;;;;4963059;28;20502;-47
2022/08/30 06:50:11;;;;;;;12.13;4.80;;;;;;;;;;4963097;28;20094;-60
2022/08/30 06:52:38;;;;;;;;;;;;;;;;;;4962817;28;20839;-64
2022/08/30 06:55:06;;;;;;;6.22;4.13;;;;;;;;;;4962462;28;20025;-64
2022/08/30 06:57:40;;;;;;;5.97;3.15;;;;;;;;;;4963825;28;20051;-65
2022/08/30 07:00:09;;;;;;;6.95;3.80;;;;;;;;;;4960792;28;20055;-65
2022/08/30 07:02:37;;;;;;;4.85;2.80;;;;;;;;;;4961123;28;20067;-65
2022/08/30 07:05:11;;;;;;;8.30;3.08;;;;;;;;;;4960782;28;20062;-63
2022/08/30 07:07:44;;;;;;;4.38;2.42;;;;;;;;;;4960427;28;20055;-51
2022/08/30 07:10:18;;;;;;;3.20;2.05;;;;;;;;;;4962119;28;20047;-50
2022/08/30 07:12:45;;;;;;;5.93;1.92;;;;;;;;;;4962443;28;20085;-50
2022/08/30 07:15:13;;;;;;;2.22;1.63;;;;;;;;;;4961047;28;20130;-47
2022/08/30 07:20:39;;;;;;;2.70;1.48;;;;;;;;;;4968035;28;20156;-48
2022/08/30 07:23:20;;;;;;;2.95;1.70;;;;;;;;;;4962690;28;20058;-47
2022/08/30 07:25:48;;;;;;;5.22;1.30;;;;;;;;;;4963742;28;20508;-49
2022/08/30 07:28:22;;;;;;;2.78;1.42;;;;;;;;;;4961754;28;20086;-49
2022/08/30 07:30:49;;;;;;;1.65;1.10;;;;;;;;;;4961735;28;20087;-45
2022/08/30 07:33:16;;;;;;;1.63;1.20;;;;;;;;;;4963342;28;20435;-45
2022/08/30 07:35:50;;;;;;;1.63;1.42;;;;;;;;;;4961589;28;20082;-50
2022/08/30 07:38:17;;;;;;;1.85;1.00;;;;;;;;;;4960735;28;20093;-45
2022/08/30 07:40:44;;;;;;;1.08;0.85;;;;;;;;;;4965664;28;20502;-48
2022/08/30 07:43:19;;;;;;;1.75;1.10;;;;;;;;;;4962062;28;20059;-47
2022/08/30 07:45:47;;;;;;;1.95;1.00;;;;;;;;;;4961117;28;20083;-59
2022/08/30 07:48:14;;;;;;;1.73;1.05;;;;;;;;;;4963381;28;20094;-57
2022/08/30 07:50:48;;;;;;;1.60;0.70;;;;;;;;;;4960554;28;20059;-56
2022/08/30 07:53:20;;;;;;;1.15;0.90;;;;;;;;;;4965233;28;20063;-55
2022/08/30 07:55:47;;;;;;;1.92;0.93;;;;;;;;;;4962655;28;20101;-57
2022/08/30 07:58:22;;;;;;;2.78;0.73;;;;;;;;;;4958670;28;20086;-54
2022/08/30 08:00:50;;;;;;;0.60;0.60;;;;;;;;;;4962210;28;20125;-58
2022/08/30 08:03:18;;;;;;;1.13;0.70;;;;;;;;;;4962072;28;20137;-57
2022/08/30 08:05:52;;;;;;;1.30;0.63;;;;;;;;;;4964141;28;20055;-48
2022/08/30 08:08:20;;;;;;;1.05;0.60;;;;;;;;;;4962641;28;20410;-49
2022/08/30 08:10:47;;;;;;;;;;;;;;;;;;4960502;28;20055;-49
2022/08/30 08:13:22;;;;;;;0.82;0.50;;;;;;;;;;4961887;28;19926;-49
2022/08/30 08:15:54;;;;;;;1.02;0.50;;;;;;;;;;4963046;28;20102;-48
2022/08/30 08:18:28;;;;;;;0.77;0.68;;;;;;;;;;4960812;28;20059;-53
2022/08/30 08:21:01;;;;;;;0.85;0.63;;;;;;;;;;4949452;28;20091;-66
2022/08/30 08:23:36;;;;;;;0.43;0.43;;;;;;;;;;4939693;28;20056;-62
2022/08/30 08:26:03;;;;;;;0.65;0.45;;;;;;;;;;4941276;28;20103;-61
2022/08/30 08:28:31;;;;;;;1.58;0.60;;;;;;;;;;4941383;28;20483;-61
2022/08/30 08:31:13;;;;;;;1.80;0.50;;;;;;;;;;4939841;28;20063;-62
2022/08/30 08:33:41;;;;;;;0.38;0.30;;;;;;;;;;4943179;28;20138;-62
2022/08/30 08:36:19;;;;;;;0.70;0.60;;;;;;;;;;4943105;28;20077;-62
2022/08/30 08:38:46;;;;;;;0.50;0.40;;;;;;;;;;4941982;28;20082;-61
2022/08/30 08:41:31;;;;;;;0.95;0.52;;;;;;;;;;4939213;28;20142;-66
2022/08/30 08:44:28;;;;;;;0.60;0.55;;;;;;;;;;4942181;28;20499;-66
2022/08/30 08:47:09;;;;;;;0.85;0.60;;;;;;;;;;4902335;28;20075;-66
2022/08/30 08:49:45;;;;;;;0.85;0.60;;;;;;;;;;4939512;28;20047;-66
2022/08/30 08:55:11;;;;;;;0.80;0.60;;;;;;;;;;4940591;28;20055;-66
2022/08/30 08:57:38;;;;;;;0.80;0.63;;;;;;;;;;4941452;28;20640;-61
2022/08/30 09:00:07;;;;;;;1.70;0.57;;;;;;;;;;4936300;28;20122;-62
2022/08/30 09:02:48;;;;;;;0.80;0.65;;;;;;;;;;4940122;28;20059;-61
2022/08/30 09:05:24;;;;;;;1.38;0.57;;;;;;;;;;4941272;28;20460;-62
2022/08/30 09:08:02;;;;;;;1.35;0.63;;;;;;;;;;4941178;28;20047;-62
2022/08/30 09:10:36;;;;;;;1.02;0.50;;;;;;;;;;4939925;28;20056;-61
2022/08/30 09:13:17;;;;;;;0.68;0.43;;;;;;;;;;4943781;28;20063;-61
2022/08/30 09:15:45;;;;;;;1.65;0.65;;;;;;;;;;4937242;28;20418;-62
2022/08/30 09:18:40;;;;;;;0.35;0.35;;;;;;;;;;4940521;28;20052;-68
2022/08/30 09:21:20;;;;;;;0.55;0.28;;;;;;;;;;4950412;28;20055;-48
2022/08/30 09:24:09;;;;;;;1.98;0.60;;;;;;;;;;4963396;28;20062;-47
2022/08/30 09:26:37;;;;;;;0.40;0.40;;;;;;;;;;4964588;28;20090;-48
2022/08/30 09:29:16;;;;;;;0.32;0.32;;;;;;;;;;4960292;28;20566;-47
2022/08/30 09:31:49;;;;;;;0.45;0.38;;;;;;;;;;4967111;28;20086;-47
2022/08/30 09:34:43;;;;;;;0.63;0.50;;;;;;;;;;4962955;28;20060;-47
2022/08/30 09:37:22;;;;;;;0.90;0.40;;;;;;;;;;4965144;28;20129;-47
2022/08/30 09:39:56;;;;;;;0.95;0.35;;;;;;;;;;4966516;28;20071;-47
2022/08/30 09:42:25;;;;;;;0.30;0.28;;;;;;;;;;4965525;28;20082;-51
2022/08/30 09:45:11;;;;;;;2.38;0.63;;;;;;;;;;4962319;28;20502;-46
2022/08/30 09:47:45;;;;;;;0.90;0.50;;;;;;;;;;4952171;28;20058;-50
2022/08/30 09:50:17;;;;;;;2.15;0.40;;;;;;;;;;4962369;28;20054;-47
2022/08/30 09:52:50;;;;;;;3.95;0.50;;;;;;;;;;4963704;28;20055;-53
2022/08/30 09:55:31;;;;;;;1.48;0.47;;;;;;;;;;4961297;28;20062;-55
2022/08/30 09:58:18;;;;;;;0.45;0.40;;;;;;;;;;4965652;28;20568;-53
2022/08/30 10:01:12;;;;;;;2.55;0.60;;;;;;;;;;4961964;28;20053;-57
2022/08/30 10:03:39;;;;;;;4.05;0.50;;;;;;;;;;4964552;28;20050;-55
2022/08/30 10:06:32;;;;;;;0.95;0.45;;;;;;;;;;4966767;28;20064;-54
2022/08/30 10:09:12;;;;;;;0.30;0.30;;;;;;;;;;4963362;28;20059;-58
2022/08/30 10:11:52;;;;;;;2.10;0.40;;;;;;;;;;4966897;28;20062;-66
2022/08/30 10:14:22;;;;;;;0.82;0.40;;;;;;;;;;4962035;28;20085;-66
2022/08/30 10:17:25;;;;;;;15.10;0.63;;;;;;;;;;4956271;28;20142;-65
2022/08/30 10:20:03;;;;;;;0.45;0.30;;;;;;;;;;4931112;28;20055;-65
2022/08/30 10:22:50;;;;;;;0.30;0.30;;;;;;;;;;4964314;28;20106;-66
2022/08/30 10:25:36;;;;;;;1.00;0.43;;;;;;;;;;4963962;28;20142;-65
2022/08/30 10:28:13;;;;;;;0.70;0.47;;;;;;;;;;4962937;28;20128;-58
2022/08/30 10:30:44;;;;;;;0.43;0.30;;;;;;;;;;4962296;28;20055;-67
2022/08/30 10:33:22;;;;;;;2.60;0.60;;;;;;;;;;4962411;28;20051;-60
2022/08/30 10:35:59;;;;;;;0.60;0.52;;;;;;;;;;4963073;28;20671;-60
2022/08/30 10:38:38;;;;;;;0.40;0.40;;;;;;;;;;4962155;28;20473;-60
2022/08/30 10:41:14;;;;;;;0.60;0.32;;;;;;;;;;4960606;28;20093;-60
2022/08/30 10:43:53;;;;;;;1.13;0.75;;;;;;;;;;4962666;28;20463;-60
2022/08/30 10:46:27;;;;;;;2.50;0.60;;;;;;;;;;4960435;28;20506;-60
2022/08/30 10:49:01;;;;;;;1.38;0.50;;;;;;;;;;4965167;28;20101;-54
2022/08/30 10:51:44;;;;;;;1.92;0.40;;;;;;;;;;4963474;28;20089;-46
2022/08/30 10:54:21;;;;;;;4.15;0.60;;;;;;;;;;4960125;28;20418;-46
2022/08/30 10:56:50;;;;;;;1.75;0.50;;;;;;;;;;4962090;28;20110;-47
2022/08/30 10:59:18;;;;;;;0.40;0.40;;;;;;;;;;4964957;28;20051;-46
2022/08/30 11:02:00;;;;;;;0.47;0.40;;;;;;;;;;4959608;28;20078;-47
2022/08/30 11:04:38;;;;;;;0.63;0.43;;;;;;;;;;4963406;28;20062;-48
2022/08/30 11:07:24;;;;;;;0.40;0.40;;;;;;;;;;4961545;28;20113;-57
2022/08/30 11:09:52;;;;;;;2.38;0.50;;;;;;;;;;4960959;28;20063;-64
2022/08/30 11:12:32;;;;;;;2.20;0.40;;;;;;;;;;4963423;28;20085;-64
2022/08/30 11:14:59;;;;;;;0.47;0.40;;;;;;;;;;4960802;28;20106;-64
2022/08/30 11:17:38;;;;;;;0.30;0.30;;;;;;;;;;4962867;28;20055;-64
2022/08/30 11:20:20;;;;;;;3.10;0.50;;;;;;;;;;4962526;28;20051;-64
2022/08/30 11:23:31;;;;;;;0.60;0.57;;;;;;;;;;4940263;28;20059;-64
2022/08/30 11:26:06;;;;;;;0.85;0.40;;;;;;;;;;4926879;28;20067;-49
2022/08/30 11:28:47;;;;;;;1.23;0.30;;;;;;;;;;4942732;28;20059;-65
2022/08/30 11:31:17;;;;;;;1.27;0.50;;;;;;;;;;4943602;28;20051;-64
2022/08/30 11:33:56;;;;;;;0.63;0.45;;;;;;;;;;4942237;28;20081;-64
2022/08/30 11:36:31;;;;;;;1.25;0.47;;;;;;;;;;4944172;28;20059;-65
2022/08/30 11:39:32;;;;;;;2.53;0.50;;;;;;;;;;4945303;28;20063;-65
2022/08/30 11:42:23;;;;;;;1.33;0.40;;;;;;;;;;4942225;28;20408;-65
2022/08/30 11:45:16;;;;;;;0.40;0.40;;;;;;;;;;4939589;28;20055;-56
2022/08/30 11:47:47;;;;;;;1.52;0.70;;;;;;;;;;4946386;28;20105;-51
2022/08/30 11:50:22;;;;;;;2.83;0.50;;;;;;;;;;4945549;28;20138;-51
2022/08/30 11:53:13;;;;;;;0.80;0.50;;;;;;;;;;4940946;28;20065;-53
2022/08/30 11:55:47;;;;;;;0.52;0.52;;;;;;;;;;4945910;28;20083;-53
2022/08/30 11:58:34;;;;;;;1.67;0.60;;;;;;;;;;4936038;28;20052;-54
2022/08/30 12:01:14;;;;;;;2.38;0.75;;;;;;;;;;4941641;28;20051;-68
2022/08/30 12:04:08;;;;;;;0.50;0.50;;;;;;;;;;4942204;28;20382;-57
2022/08/30 12:06:44;;;;;;;1.27;0.63;;;;;;;;;;4944218;28;20059;-54
2022/08/30 12:09:24;;;;;;;0.50;0.50;;;;;;;;;;4941535;28;20047;-55
2022/08/30 12:12:09;;;;;;;1.48;0.57;;;;;;;;;;4943077;28;20083;-54
2022/08/30 12:14:48;;;;;;;1.30;0.50;;;;;;;;;;4943038;28;20051;-56
2022/08/30 12:20:30;;;;;;;0.85;0.60;;;;;;;;;;4944421;28;20126;-58
2022/08/30 12:23:32;;;;;;;2.00;0.57;;;;;;;;;;4961867;28;20550;-59
2022/08/30 12:26:14;;;;;;;2.25;0.47;;;;;;;;;;4957842;28;20173;-59
2022/08/30 12:28:49;;;;;;;1.80;0.70;;;;;;;;;;4957978;28;20106;-59
2022/08/30 12:31:19;;;;;;;0.98;0.88;;;;;;;;;;4962431;28;20047;-60
2022/08/30 12:33:52;;;;;;;0.50;0.50;;;;;;;;;;4958341;28;21840;-59
2022/08/30 12:36:40;;;;;;;1.23;0.70;;;;;;;;;;4956359;28;20102;-59
2022/08/30 12:39:13;;;;;;;1.00;0.90;;;;;;;;;;4956468;28;20114;-60
2022/08/30 12:41:47;;;;;;;0.68;0.57;;;;;;;;;;4956538;28;20046;-62
2022/08/30 12:44:14;;;;;;;;;;;;;;;;;;4960874;28;20048;-63
2022/08/30 12:46:44;;;;;;;0.70;0.70;;;;;;;;;;4960941;28;20374;-63
2022/08/30 12:49:26;;;;;;;1.17;0.68;;;;;;;;;;4961001;28;20155;-62
2022/08/30 12:51:54;;;;;;;0.75;0.63;;;;;;;;;;4957345;28;20083;-62
2022/08/30 12:54:29;;;;;;;0.90;0.60;;;;;;;;;;4959784;28;20086;-62
2022/08/30 12:57:06;;;;;;;2.35;0.60;;;;;;;;;;4958021;28;20530;-45
2022/08/30 13:00:00;;;;;;;0.70;0.63;;;;;;;;;;4964514;28;20047;-47
2022/08/30 13:02:43;;;;;;;3.20;0.70;;;;;;;;;;4963428;28;20047;-45
2022/08/30 13:05:49;;;;;;;0.57;0.50;;;;;;;;;;4960228;28;20138;-48
2022/08/30 13:08:26;;;;;;;1.85;0.63;;;;;;;;;;4935902;28;21270;-45
2022/08/30 13:11:01;;;;;;;0.90;0.52;;;;;;;;;;4963441;28;20055;-46
2022/08/30 13:13:37;;;;;;;1.13;0.70;;;;;;;;;;4963914;28;20150;-45
2022/08/30 13:16:19;;;;;;;0.90;0.65;;;;;;;;;;4964580;28;20057;-46
2022/08/30 13:19:05;;;;;;;0.95;0.70;;;;;;;;;;4961583;28;20058;-59
2022/08/30 13:21:53;;;;;;;1.95;0.70;;;;;;;;;;4965566;28;20145;-59
2022/08/30 13:24:20;;;;;;;2.60;0.63;;;;;;;;;;4962179;28;20051;-60
2022/08/30 13:26:55;;;;;;;0.50;0.50;;;;;;;;;;4963324;28;20063;-61
2022/08/30 13:29:25;;;;;;;2.78;0.70;;;;;;;;;;4960947;28;20054;-61
2022/08/30 13:31:53;;;;;;;1.35;0.75;;;;;;;;;;4959928;28;20059;-61
2022/08/30 13:34:31;;;;;;;0.73;0.52;;;;;;;;;;4965596;28;20954;-55
2022/08/30 13:36:59;;;;;;;1.23;0.80;;;;;;;;;;4962222;28;20058;-60
2022/08/30 13:39:26;;;;;;;1.05;0.88;;;;;;;;;;4962195;28;20138;-60
2022/08/30 13:42:02;;;;;;;0.88;0.65;;;;;;;;;;4962849;28;20047;-59
2022/08/30 13:44:49;;;;;;;2.28;0.57;;;;;;;;;;4962689;28;20057;-58
2022/08/30 13:47:23;;;;;;;1.15;0.50;;;;;;;;;;4965610;28;20089;-58
2022/08/30 13:49:58;;;;;;;0.50;0.40;;;;;;;;;;4964235;28;20046;-57
2022/08/30 13:52:33;;;;;;;1.15;0.57;;;;;;;;;;4966720;28;20626;-62
2022/08/30 13:55:01;;;;;;;2.45;0.60;;;;;;;;;;4961215;28;20414;-53
2022/08/30 13:57:30;;;;;;;1.35;0.95;;;;;;;;;;4965083;28;20570;-56
2022/08/30 14:00:23;;;;;;;2.20;0.50;;;;;;;;;;4962583;28;20055;-56
2022/08/30 14:02:56;;;;;;;0.32;0.32;;;;;;;;;;4964156;28;20059;-56
2022/08/30 14:05:32;;;;;;;2.92;0.80;;;;;;;;;;4962489;28;20539;-54
2022/08/30 14:08:21;;;;;;;1.20;0.77;;;;;;;;;;4963794;28;20142;-55
2022/08/30 14:11:16;;;;;;;2.25;0.73;;;;;;;;;;4962927;28;20410;-61
2022/08/30 14:13:45;;;;;;;2.78;0.90;;;;;;;;;;4962568;28;20046;-61
2022/08/30 14:16:41;;;;;;;1.00;0.73;;;;;;;;;;4964859;28;20137;-61
2022/08/30 14:19:10;;;;;;;1.52;0.65;;;;;;;;;;4960775;28;20602;-61
2022/08/30 14:21:51;;;;;;;1.25;0.63;;;;;;;;;;4963327;28;20094;-62
2022/08/30 14:24:18;;;;;;;3.72;0.70;;;;;;;;;;4963491;28;20050;-61
2022/08/30 14:26:52;;;;;;;1.10;0.77;;;;;;;;;;4964004;28;20054;-60
2022/08/30 14:29:22;;;;;;;0.90;0.65;;;;;;;;;;4960222;28;20510;-61
2022/08/30 14:31:51;;;;;;;0.98;0.60;;;;;;;;;;4964879;28;20059;-49
2022/08/30 14:34:26;;;;;;;1.08;0.60;;;;;;;;;;4962011;28;20593;-45
2022/08/30 14:36:55;;;;;;;1.60;0.88;;;;;;;;;;4963826;28;20082;-50
2022/08/30 14:39:22;;;;;;;0.85;0.60;;;;;;;;;;4963678;28;20055;-47
2022/08/30 14:41:56;;;;;;;0.75;0.63;;;;;;;;;;4962172;28;20136;-44
2022/08/30 14:44:29;;;;;;;1.92;0.68;;;;;;;;;;4959137;28;20142;-47
2022/08/30 14:47:21;;;;;;;2.85;0.75;;;;;;;;;;4962042;28;20062;-59
2022/08/30 14:49:57;;;;;;;0.63;0.63;;;;;;;;;;4961923;28;20055;-68
2022/08/30 14:52:31;;;;;;;0.50;0.50;;;;;;;;;;4959033;28;20145;-66
2022/08/30 14:54:58;;;;;;;;;;;;;;;;;;4963019;28;20134;-68
2022/08/30 14:57:31;;;;;;;0.70;0.68;;;;;;;;;;4959110;28;19926;-67
2022/08/30 15:00:06;;;;;;;1.08;0.80;;;;;;;;;;4962491;28;20110;-68
2022/08/30 15:02:33;;;;;;;0.57;0.57;;;;;;;;;;4960300;28;20478;-68
2022/08/30 15:05:01;;;;;;;0.80;0.75;;;;;;;;;;4961151;28;20057;-61
2022/08/30 15:07:35;;;;;;;0.40;0.40;;;;;;;;;;4965214;28;20106;-49
2022/08/30 15:10:03;;;;;;;0.40;0.40;;;;;;;;;;4964320;28;20114;-69
2022/08/30 15:12:30;;;;;;;;;;;;;;;;;;4964107;28;20062;-69
2022/08/30 15:15:04;;;;;;;2.03;0.60;;;;;;;;;;4960989;28;19973;-69
2022/08/30 15:17:31;;;;;;;0.55;0.45;;;;;;;;;;4962572;28;20134;-68
2022/08/30 15:19:59;;;;;;;2.78;0.60;;;;;;;;;;4959722;28;20050;-69
2022/08/30 15:22:43;;;;;;;0.63;0.57;;;;;;;;;;4966896;28;20073;-69
2022/08/30 15:25:12;;;;;;;1.55;0.70;;;;;;;;;;4964217;28;20105;-58
2022/08/30 15:27:47;;;;;;;0.50;0.50;;;;;;;;;;4963909;28;20063;-54
2022/08/30 15:30:15;;;;;;;3.03;0.57;;;;;;;;;;4961339;28;20062;-53
2022/08/30 15:32:45;;;;;;;2.05;0.90;;;;;;;;;;4961188;28;20059;-53
2022/08/30 15:35:19;;;;;;;0.80;0.75;;;;;;;;;;4959776;28;20112;-50